createdAt,value
2019-05-11T00:15:55.886Z,12.77
2019-05-11T00:30:51.519Z,12.82
2019-05-11T00:45:50.816Z,12.82
2019-05-11T01:00:53.318Z,12.74
2019-05-11T01:15:53.094Z,12.69
2019-05-11T02:30:56.671Z,12.46
2019-05-11T03:00:49.228Z,12.19
2019-05-11T03:30:51.021Z,12.31
2019-05-11T03:45:49.127Z,13.89
2019-05-11T04:00:49.063Z,16.12
2019-05-11T04:15:49.850Z,18.43
2019-05-11T04:30:52.075Z,21.07
2019-05-11T04:45:49.825Z,22.94
2019-05-11T05:00:52.266Z,24.06
2019-05-11T05:15:49.279Z,25.08
2019-05-11T05:30:49.698Z,25.79
2019-05-11T05:45:50.102Z,26.37
2019-05-11T06:00:56.468Z,26.91
2019-05-11T06:15:49.690Z,27.30
2019-05-11T06:30:49.890Z,27.60
2019-05-11T06:45:51.867Z,28.02
2019-05-11T07:00:49.889Z,28.56
2019-05-11T07:15:53.495Z,28.09
2019-05-11T07:30:50.659Z,27.33
2019-05-11T07:45:49.207Z,27.81
2019-05-11T08:00:58.141Z,27.15
2019-05-11T08:15:50.549Z,26.57
2019-05-11T08:30:49.258Z,27.68
2019-05-11T08:45:49.978Z,29.21
2019-05-11T09:15:51.513Z,30.64
2019-05-11T09:30:49.785Z,30.95
2019-05-11T09:45:51.948Z,31.13
2019-05-11T10:00:53.727Z,31.10
2019-05-11T10:16:04.568Z,30.87
2019-05-11T10:30:49.634Z,30.87
2019-05-11T10:45:55.692Z,30.99
2019-05-11T11:00:49.908Z,30.39
2019-05-11T11:15:49.535Z,29.66
2019-05-11T11:30:49.528Z,29.28
2019-05-11T11:45:49.411Z,28.45
2019-05-11T12:00:49.345Z,27.74
2019-05-11T12:15:49.372Z,26.84
2019-05-11T12:30:58.642Z,26.21
2019-05-11T12:45:50.890Z,26.16
2019-05-11T13:00:52.274Z,25.61
2019-05-11T13:30:49.988Z,24.35
2019-05-11T13:45:52.312Z,24.26
2019-05-11T14:00:54.006Z,23.87
2019-05-11T14:15:50.916Z,24.03
2019-05-11T14:30:49.246Z,24.04
2019-05-11T14:45:49.045Z,23.57
2019-05-11T15:00:49.001Z,23.41
2019-05-11T15:15:50.262Z,22.89
2019-05-11T15:31:00.090Z,22.53
2019-05-11T15:45:59.518Z,22.40
2019-05-11T16:00:49.213Z,22.49
2019-05-11T16:15:49.146Z,22.17
2019-05-11T16:30:49.523Z,21.81
2019-05-11T16:45:52.458Z,21.36
2019-05-11T17:00:51.829Z,20.92
2019-05-11T17:15:48.841Z,20.40
2019-05-11T17:30:48.801Z,19.87
2019-05-11T18:00:51.517Z,18.96
2019-05-11T18:15:49.980Z,18.61
2019-05-11T18:30:52.010Z,18.31
2019-05-11T18:45:51.494Z,17.98
2019-05-11T19:00:51.114Z,17.75
2019-05-11T19:30:51.690Z,16.89
2019-05-11T19:45:51.617Z,16.62
2019-05-11T20:00:57.988Z,16.44
2019-05-11T20:15:57.979Z,16.36
2019-05-11T20:30:49.344Z,16.22
2019-05-11T20:45:49.693Z,16.03
2019-05-11T21:00:49.606Z,15.84
2019-05-11T21:15:49.052Z,15.70
2019-05-11T21:30:49.995Z,15.57
2019-05-11T21:45:49.936Z,15.40
2019-05-11T22:00:52.008Z,15.26
2019-05-11T22:45:53.563Z,14.72
2019-05-11T23:00:49.436Z,14.46
2019-05-11T23:15:49.432Z,13.97
2019-05-11T23:30:49.812Z,13.97
2019-05-11T23:45:49.430Z,13.86
